Bryant, South Dakota
Current Conditions -  °F | °C
As of 3:53 PM on Friday 24 Oct 2014 (Local Time) from KATY Reporting Station
Clear Clear  
Wind Chill: 72°   Ceiling: Unl
Heat Index: 72°   Visibility: 10mi
Dew Point: 39°   Wind: 10mph
Humidity: 30%   Direction: 300°WNW
Pressure: 29.88"   Gusts: NA
Location:  44.59°N, 97.47°W
Report Text: KATY 242053Z AUTO 30009KT 10SM CLR 22/04 A2988 RMK AO2 SLP118 T02220039 55001
Loading
Personal Weather Stations






























Interactive Weather Map
Tropical Storm Tracking
New forecast layout! Learn more

10-Day Weather Forecast

Advertisements
Track Severe Weather on mobile